LZB8793 LBSF-LTBS
Flight info
| Callsign | LZB8793 |
|---|---|
| Flight time | 1h 9m |
| Altitude | 37000 |
| Route | OMENO3S/09 OMENO Y505 NIKTI UN127 LMO UN128 RIKSO UN127 IMR UT489 SONUP |
| Aircraft | A320/M-SDE3FGHIRWY/LB1 |
Departure
| Time | 2026-05-04 16:44 |
|---|---|
| Airport | Sofia Airport (LBSF) |
Arrival
| Time | 2026-05-04 17:54 |
|---|---|
| Airport | Dalaman International Airport (LTBS) |
| Time | Latitude | Longitude | Altitude | Speed | Heading |
|---|---|---|---|---|---|
| 2026-05-04 16:28 | 42.69027 | 23.40522 | 1760 ft | 0 kts | 196° |
| 2026-05-04 16:36 | 42.69015 | 23.40517 | 1760 ft | 2 kts | 197° |
| 2026-05-04 16:37 | 42.68988 | 23.40476 | 1760 ft | 4 kts | 258° |
| 2026-05-04 16:37 | 42.68994 | 23.40431 | 1760 ft | 5 kts | 288° |
| 2026-05-04 16:37 | 42.69043 | 23.40307 | 1760 ft | 11 kts | 350° |
| 2026-05-04 16:38 | 42.69244 | 23.40380 | 1760 ft | 18 kts | 16° |
| 2026-05-04 16:39 | 42.69568 | 23.40607 | 1760 ft | 13 kts | 65° |
| 2026-05-04 16:39 | 42.69602 | 23.40703 | 1759 ft | 0 kts | 64° |
| 2026-05-04 16:41 | 42.69602 | 23.40704 | 1759 ft | 0 kts | 64° |
| 2026-05-04 16:41 | 42.69668 | 23.40918 | 1759 ft | 16 kts | 75° |
| 2026-05-04 16:42 | 42.69683 | 23.41131 | 1759 ft | 1 kts | 94° |
| 2026-05-04 16:43 | 42.69670 | 23.41344 | 1759 ft | 53 kts | 94° |
| 2026-05-04 16:43 | 42.69537 | 23.43549 | 1788 ft | 169 kts | 94° |
| 2026-05-04 16:43 | 42.69417 | 23.45159 | 2304 ft | 174 kts | 93° |
| 2026-05-04 16:44 | 42.68946 | 23.51869 | 4657 ft | 193 kts | 103° |
| 2026-05-04 16:45 | 42.66546 | 23.53734 | 5332 ft | 240 kts | 180° |
| 2026-05-04 16:46 | 42.61033 | 23.53723 | 6787 ft | 286 kts | 157° |
| 2026-05-04 16:46 | 42.57406 | 23.55910 | 8462 ft | 290 kts | 150° |
| 2026-05-04 16:47 | 42.53706 | 23.58165 | 10132 ft | 296 kts | 150° |
| 2026-05-04 16:47 | 42.49794 | 23.60429 | 11164 ft | 324 kts | 152° |
| 2026-05-04 16:48 | 42.43076 | 23.64185 | 12638 ft | 362 kts | 153° |
| 2026-05-04 16:48 | 42.40760 | 23.65460 | 13381 ft | 365 kts | 153° |
| 2026-05-04 16:49 | 42.36021 | 23.68092 | 14741 ft | 374 kts | 154° |
| 2026-05-04 16:49 | 42.31167 | 23.70772 | 16009 ft | 383 kts | 154° |
| 2026-05-04 16:50 | 42.26160 | 23.73519 | 17250 ft | 392 kts | 154° |
| 2026-05-04 16:50 | 42.21085 | 23.76296 | 18424 ft | 400 kts | 155° |
| 2026-05-04 16:51 | 42.15916 | 23.79119 | 19607 ft | 406 kts | 155° |
| 2026-05-04 16:51 | 42.13265 | 23.80563 | 20209 ft | 409 kts | 155° |
| 2026-05-04 16:51 | 42.07961 | 23.83450 | 21300 ft | 416 kts | 155° |
| 2026-05-04 16:52 | 42.02570 | 23.86382 | 22397 ft | 421 kts | 155° |
| 2026-05-04 16:52 | 41.99837 | 23.87863 | 22901 ft | 425 kts | 155° |
| 2026-05-04 16:53 | 41.94308 | 23.90859 | 23469 ft | 431 kts | 155° |
| 2026-05-04 16:53 | 41.85943 | 23.95371 | 25081 ft | 435 kts | 155° |
| 2026-05-04 16:54 | 41.83169 | 23.96861 | 25555 ft | 436 kts | 155° |
| 2026-05-04 16:55 | 41.71783 | 24.02979 | 27234 ft | 445 kts | 156° |
| 2026-05-04 16:55 | 41.66015 | 24.06072 | 27993 ft | 449 kts | 156° |
| 2026-05-04 16:56 | 41.60212 | 24.09179 | 28716 ft | 453 kts | 156° |
| 2026-05-04 16:56 | 41.51785 | 24.14779 | 29863 ft | 451 kts | 146° |
| 2026-05-04 16:57 | 41.49149 | 24.17065 | 30279 ft | 450 kts | 144° |
| 2026-05-04 16:57 | 41.43980 | 24.21695 | 31055 ft | 449 kts | 143° |
| 2026-05-04 16:58 | 41.36241 | 24.28598 | 32250 ft | 446 kts | 144° |
| 2026-05-04 16:58 | 41.33639 | 24.30913 | 32634 ft | 445 kts | 144° |
| 2026-05-04 16:59 | 41.28515 | 24.35463 | 33377 ft | 443 kts | 144° |
| 2026-05-04 17:00 | 41.18215 | 24.44208 | 34754 ft | 440 kts | 149° |
| 2026-05-04 17:00 | 41.10002 | 24.49533 | 35523 ft | 436 kts | 152° |
| 2026-05-04 17:01 | 41.04518 | 24.53033 | 35901 ft | 437 kts | 152° |
| 2026-05-04 17:01 | 40.99072 | 24.56511 | 36202 ft | 437 kts | 152° |
| 2026-05-04 17:02 | 40.93576 | 24.60012 | 36475 ft | 438 kts | 152° |
| 2026-05-04 17:02 | 40.88086 | 24.63503 | 36790 ft | 440 kts | 152° |
| 2026-05-04 17:03 | 40.85316 | 24.65253 | 36944 ft | 441 kts | 153° |
| 2026-05-04 17:03 | 40.76985 | 24.70556 | 37049 ft | 444 kts | 153° |
| 2026-05-04 17:04 | 40.65843 | 24.77630 | 37060 ft | 445 kts | 153° |
| 2026-05-04 17:05 | 40.54733 | 24.84633 | 37068 ft | 445 kts | 153° |
| 2026-05-04 17:06 | 40.46346 | 24.89909 | 37068 ft | 446 kts | 153° |
| 2026-05-04 17:07 | 40.38897 | 24.94579 | 37079 ft | 447 kts | 153° |
| 2026-05-04 17:07 | 40.32322 | 24.98690 | 37079 ft | 447 kts | 153° |
| 2026-05-04 17:08 | 40.23922 | 25.03929 | 37073 ft | 448 kts | 153° |
| 2026-05-04 17:09 | 40.18319 | 25.07416 | 37078 ft | 449 kts | 153° |
| 2026-05-04 17:09 | 40.12698 | 25.10906 | 37068 ft | 450 kts | 153° |
| 2026-05-04 17:10 | 39.98566 | 25.19650 | 37070 ft | 450 kts | 153° |
| 2026-05-04 17:11 | 39.93079 | 25.23530 | 37060 ft | 450 kts | 146° |
| 2026-05-04 17:12 | 39.85654 | 25.30827 | 37078 ft | 447 kts | 136° |
| 2026-05-04 17:13 | 39.73943 | 25.44134 | 37062 ft | 449 kts | 136° |
| 2026-05-04 17:14 | 39.64548 | 25.54751 | 37066 ft | 448 kts | 136° |
| 2026-05-04 17:15 | 39.57480 | 25.62706 | 37063 ft | 449 kts | 136° |
| 2026-05-04 17:16 | 39.48047 | 25.73326 | 37073 ft | 450 kts | 137° |
| 2026-05-04 17:17 | 39.38593 | 25.83903 | 37064 ft | 451 kts | 137° |
| 2026-05-04 17:18 | 39.29110 | 25.94461 | 37075 ft | 451 kts | 137° |
| 2026-05-04 17:19 | 39.19491 | 26.04816 | 37082 ft | 452 kts | 138° |
| 2026-05-04 17:20 | 39.09841 | 26.15143 | 37077 ft | 452 kts | 138° |
| 2026-05-04 17:20 | 39.02604 | 26.22870 | 37066 ft | 452 kts | 138° |
| 2026-05-04 17:21 | 38.93211 | 26.32867 | 37080 ft | 454 kts | 138° |
| 2026-05-04 17:22 | 38.88313 | 26.38061 | 37067 ft | 462 kts | 138° |
| 2026-05-04 17:23 | 38.78434 | 26.48731 | 37078 ft | 466 kts | 136° |
| 2026-05-04 17:24 | 38.71109 | 26.56979 | 37078 ft | 468 kts | 136° |
| 2026-05-04 17:25 | 38.60863 | 26.67263 | 37071 ft | 469 kts | 142° |
| 2026-05-04 17:26 | 38.50426 | 26.77253 | 37063 ft | 470 kts | 142° |
| 2026-05-04 17:27 | 38.37365 | 26.89769 | 37063 ft | 471 kts | 142° |
| 2026-05-04 17:28 | 38.26918 | 26.99741 | 37054 ft | 472 kts | 142° |
| 2026-05-04 17:29 | 38.11174 | 27.14696 | 37053 ft | 472 kts | 142° |
| 2026-05-04 17:31 | 37.98029 | 27.27124 | 36720 ft | 474 kts | 142° |
| 2026-05-04 17:31 | 37.89993 | 27.34679 | 34808 ft | 485 kts | 141° |
| 2026-05-04 17:32 | 37.84620 | 27.39700 | 33651 ft | 480 kts | 140° |
| 2026-05-04 17:33 | 37.76577 | 27.47218 | 31135 ft | 483 kts | 139° |
| 2026-05-04 17:33 | 37.73874 | 27.49744 | 30255 ft | 484 kts | 139° |
| 2026-05-04 17:34 | 37.65786 | 27.57315 | 27325 ft | 486 kts | 140° |
| 2026-05-04 17:34 | 37.63080 | 27.59841 | 26613 ft | 481 kts | 140° |
| 2026-05-04 17:35 | 37.55133 | 27.67247 | 24449 ft | 471 kts | 141° |
| 2026-05-04 17:35 | 37.49918 | 27.72119 | 23106 ft | 465 kts | 141° |
| 2026-05-04 17:35 | 37.47307 | 27.74548 | 22435 ft | 463 kts | 141° |
| 2026-05-04 17:36 | 37.44749 | 27.76922 | 21806 ft | 459 kts | 141° |
| 2026-05-04 17:36 | 37.42169 | 27.79314 | 21155 ft | 457 kts | 142° |
| 2026-05-04 17:36 | 37.39621 | 27.81671 | 20482 ft | 455 kts | 142° |
| 2026-05-04 17:36 | 37.37102 | 27.84001 | 19812 ft | 453 kts | 142° |
| 2026-05-04 17:37 | 37.34584 | 27.86326 | 19196 ft | 450 kts | 142° |
| 2026-05-04 17:37 | 37.32061 | 27.88652 | 18594 ft | 446 kts | 142° |
| 2026-05-04 17:37 | 37.29591 | 27.90929 | 18046 ft | 442 kts | 142° |
| 2026-05-04 17:37 | 37.27121 | 27.93203 | 17496 ft | 438 kts | 142° |
| 2026-05-04 17:38 | 37.24674 | 27.95453 | 16949 ft | 435 kts | 142° |
| 2026-05-04 17:38 | 37.22253 | 27.97675 | 16424 ft | 431 kts | 142° |
| 2026-05-04 17:38 | 37.19827 | 27.99901 | 15899 ft | 434 kts | 142° |
| 2026-05-04 17:38 | 37.17387 | 28.02144 | 15369 ft | 433 kts | 142° |
| 2026-05-04 17:39 | 37.12559 | 28.06570 | 14331 ft | 435 kts | 142° |
| 2026-05-04 17:39 | 37.10062 | 28.08860 | 13754 ft | 446 kts | 142° |
| 2026-05-04 17:39 | 37.07573 | 28.11138 | 13207 ft | 445 kts | 142° |
| 2026-05-04 17:40 | 37.05086 | 28.13409 | 12695 ft | 446 kts | 142° |
| 2026-05-04 17:40 | 37.02572 | 28.15706 | 12202 ft | 447 kts | 142° |
| 2026-05-04 17:40 | 37.00072 | 28.17988 | 11639 ft | 445 kts | 142° |
| 2026-05-04 17:40 | 36.97574 | 28.20262 | 11109 ft | 440 kts | 142° |
| 2026-05-04 17:41 | 36.95088 | 28.22528 | 10585 ft | 436 kts | 142° |
| 2026-05-04 17:41 | 36.92693 | 28.24708 | 10263 ft | 424 kts | 142° |
| 2026-05-04 17:41 | 36.90353 | 28.26833 | 10174 ft | 404 kts | 142° |
| 2026-05-04 17:41 | 36.88129 | 28.28845 | 10081 ft | 386 kts | 142° |
| 2026-05-04 17:42 | 36.85972 | 28.30788 | 10007 ft | 377 kts | 142° |
| 2026-05-04 17:42 | 36.83852 | 28.32701 | 9743 ft | 376 kts | 142° |
| 2026-05-04 17:42 | 36.81751 | 28.34598 | 9372 ft | 373 kts | 142° |
| 2026-05-04 17:42 | 36.79649 | 28.36502 | 9001 ft | 370 kts | 142° |
| 2026-05-04 17:43 | 36.77600 | 28.38358 | 8634 ft | 367 kts | 141° |
| 2026-05-04 17:43 | 36.75520 | 28.40241 | 8262 ft | 364 kts | 141° |
| 2026-05-04 17:43 | 36.73513 | 28.42053 | 7891 ft | 358 kts | 141° |
| 2026-05-04 17:43 | 36.71506 | 28.43867 | 7553 ft | 350 kts | 141° |
| 2026-05-04 17:44 | 36.69558 | 28.45626 | 7215 ft | 343 kts | 141° |
| 2026-05-04 17:44 | 36.67654 | 28.47343 | 6819 ft | 333 kts | 141° |
| 2026-05-04 17:44 | 36.65808 | 28.49007 | 6426 ft | 318 kts | 140° |
| 2026-05-04 17:44 | 36.64069 | 28.50575 | 6085 ft | 302 kts | 140° |
| 2026-05-04 17:45 | 36.62407 | 28.52074 | 5771 ft | 286 kts | 140° |
| 2026-05-04 17:45 | 36.60846 | 28.53477 | 5485 ft | 272 kts | 140° |
| 2026-05-04 17:45 | 36.59321 | 28.54854 | 5212 ft | 271 kts | 140° |
| 2026-05-04 17:45 | 36.57799 | 28.56228 | 4973 ft | 268 kts | 140° |
| 2026-05-04 17:46 | 36.56306 | 28.57573 | 4689 ft | 264 kts | 140° |
| 2026-05-04 17:46 | 36.54822 | 28.58907 | 4395 ft | 259 kts | 140° |
| 2026-05-04 17:46 | 36.53525 | 28.60359 | 4104 ft | 244 kts | 120° |
| 2026-05-04 17:46 | 36.52797 | 28.62124 | 3870 ft | 224 kts | 100° |
| 2026-05-04 17:47 | 36.52401 | 28.63932 | 3808 ft | 210 kts | 96° |
| 2026-05-04 17:47 | 36.52064 | 28.65680 | 3803 ft | 209 kts | 97° |
| 2026-05-04 17:47 | 36.51717 | 28.67419 | 3848 ft | 199 kts | 98° |
| 2026-05-04 17:47 | 36.51378 | 28.69020 | 3748 ft | 185 kts | 98° |
| 2026-05-04 17:48 | 36.51157 | 28.70528 | 3549 ft | 171 kts | 79° |
| 2026-05-04 17:48 | 36.51511 | 28.71821 | 3315 ft | 151 kts | 43° |
| 2026-05-04 17:48 | 36.52296 | 28.72541 | 3150 ft | 134 kts | 22° |
| 2026-05-04 17:48 | 36.53159 | 28.72979 | 3040 ft | 132 kts | 16° |
| 2026-05-04 17:49 | 36.54033 | 28.73328 | 3068 ft | 132 kts | 14° |
| 2026-05-04 17:49 | 36.54923 | 28.73655 | 3012 ft | 133 kts | 14° |
| 2026-05-04 17:49 | 36.55815 | 28.73970 | 2850 ft | 131 kts | 14° |
| 2026-05-04 17:49 | 36.56688 | 28.74272 | 2673 ft | 131 kts | 13° |
| 2026-05-04 17:50 | 36.57563 | 28.74572 | 2500 ft | 131 kts | 14° |
| 2026-05-04 17:50 | 36.58451 | 28.74874 | 2323 ft | 131 kts | 13° |
| 2026-05-04 17:50 | 36.59327 | 28.75171 | 2155 ft | 131 kts | 14° |
| 2026-05-04 17:50 | 36.60216 | 28.75472 | 1983 ft | 131 kts | 13° |
| 2026-05-04 17:51 | 36.61095 | 28.75770 | 1829 ft | 131 kts | 13° |
| 2026-05-04 17:51 | 36.61971 | 28.76068 | 1646 ft | 131 kts | 13° |
| 2026-05-04 17:51 | 36.62859 | 28.76369 | 1466 ft | 132 kts | 13° |
| 2026-05-04 17:51 | 36.63747 | 28.76672 | 1292 ft | 129 kts | 13° |
| 2026-05-04 17:52 | 36.64610 | 28.76960 | 1112 ft | 127 kts | 13° |
| 2026-05-04 17:52 | 36.65463 | 28.77250 | 942 ft | 126 kts | 13° |
| 2026-05-04 17:52 | 36.66305 | 28.77539 | 778 ft | 126 kts | 14° |
| 2026-05-04 17:52 | 36.67155 | 28.77832 | 614 ft | 126 kts | 13° |
| 2026-05-04 17:53 | 36.67994 | 28.78115 | 449 ft | 125 kts | 13° |
| 2026-05-04 17:53 | 36.68839 | 28.78408 | 282 ft | 125 kts | 14° |
| 2026-05-04 17:53 | 36.69673 | 28.78683 | 107 ft | 125 kts | 13° |
| 2026-05-04 17:53 | 36.70499 | 28.78974 | 17 ft | 118 kts | 11° |
| 2026-05-04 17:54 | 36.71180 | 28.79196 | 19 ft | 86 kts | 16° |
| 2026-05-04 17:54 | 36.71679 | 28.79369 | 24 ft | 59 kts | 15° |
| 2026-05-04 17:54 | 36.72031 | 28.79415 | 26 ft | 44 kts | 347° |
| 2026-05-04 17:54 | 36.72230 | 28.79352 | 28 ft | 24 kts | 343° |
| 2026-05-04 17:55 | 36.72293 | 28.79238 | 29 ft | 14 kts | 285° |
| 2026-05-04 17:55 | 36.72261 | 28.79146 | 29 ft | 13 kts | 198° |
| 2026-05-04 17:55 | 36.72164 | 28.79115 | 28 ft | 15 kts | 196° |
| 2026-05-04 17:55 | 36.72057 | 28.79077 | 27 ft | 16 kts | 195° |
| 2026-05-04 17:56 | 36.71944 | 28.79038 | 27 ft | 17 kts | 195° |
| 2026-05-04 17:56 | 36.71824 | 28.78997 | 25 ft | 17 kts | 195° |
| 2026-05-04 17:56 | 36.71703 | 28.78954 | 24 ft | 15 kts | 193° |
| 2026-05-04 17:56 | 36.71659 | 28.78992 | 24 ft | 9 kts | 106° |
| 2026-05-04 17:57 | 36.71650 | 28.79030 | 24 ft | 0 kts | 104° |